createdAt,value
2018-11-09T00:02:24.808Z,17.90
2018-11-09T00:04:55.841Z,18.73
2018-11-09T00:07:25.286Z,17.80
2018-11-09T00:09:54.401Z,18.17
2018-11-09T00:12:24.876Z,16.03
2018-11-09T00:14:55.482Z,17.03
2018-11-09T00:17:25.775Z,16.30
2018-11-09T00:19:57.042Z,19.93
2018-11-09T00:22:26.172Z,22.87
2018-11-09T00:24:55.257Z,14.53
2018-11-09T00:27:24.518Z,16.40
2018-11-09T00:29:53.719Z,15.10
2018-11-09T00:32:23.820Z,17.20
2018-11-09T00:35:09.904Z,17.47
2018-11-09T00:37:39.080Z,15.50
2018-11-09T00:40:10.235Z,20.13
2018-11-09T00:42:40.482Z,17.87
2018-11-09T00:45:11.206Z,18.57
2018-11-09T00:47:40.591Z,16.00
2018-11-09T00:50:10.161Z,17.07
2018-11-09T00:52:39.367Z,16.10
2018-11-09T00:55:10.525Z,18.50
2018-11-09T00:57:39.804Z,16.97
2018-11-09T01:00:11.044Z,17.37
2018-11-09T01:02:40.284Z,16.67
2018-11-09T01:05:09.413Z,19.60
2018-11-09T01:07:38.613Z,15.20
2018-11-09T01:10:08.601Z,18.37
2018-11-09T01:12:38.416Z,22.30
2018-11-09T01:15:08.167Z,17.37
2018-11-09T01:17:37.457Z,17.50
2018-11-09T01:20:08.932Z,16.73
2018-11-09T01:22:38.139Z,16.60
2018-11-09T01:25:08.370Z,17.93
2018-11-09T01:27:39.573Z,18.47
2018-11-09T01:30:12.739Z,17.50
2018-11-09T01:32:42.440Z,17.43
2018-11-09T01:35:11.624Z,14.57
2018-11-09T01:37:40.989Z,18.33
2018-11-09T01:40:13.148Z,18.60
2018-11-09T01:42:42.646Z,19.03
2018-11-09T01:45:14.070Z,16.07
2018-11-09T01:47:48.612Z,14.00
2018-11-09T01:50:22.318Z,13.60
2018-11-09T01:52:53.755Z,14.57
2018-11-09T01:55:23.008Z,12.43
2018-11-09T01:57:52.319Z,18.73
2018-11-09T02:00:22.696Z,11.53
2018-11-09T02:02:53.021Z,15.63
2018-11-09T02:05:23.029Z,14.47
2018-11-09T02:07:52.850Z,13.83
2018-11-09T02:10:22.408Z,17.13
2018-11-09T02:12:52.696Z,17.60
2018-11-09T02:15:26.352Z,12.43
2018-11-09T02:17:55.650Z,15.07
2018-11-09T02:20:24.928Z,16.10
2018-11-09T02:22:54.081Z,15.50
2018-11-09T02:25:23.336Z,17.50
2018-11-09T02:27:53.962Z,16.53
2018-11-09T02:30:23.429Z,15.77
2018-11-09T02:32:57.177Z,16.30
2018-11-09T02:35:29.195Z,17.43
2018-11-09T02:37:59.510Z,17.17
2018-11-09T02:40:34.340Z,15.67
2018-11-09T02:43:03.591Z,17.83
2018-11-09T02:45:34.510Z,14.03
2018-11-09T02:48:03.844Z,20.53
2018-11-09T02:50:37.029Z,15.83
2018-11-09T02:53:06.320Z,16.30
2018-11-09T02:55:36.186Z,20.47
2018-11-09T02:58:05.372Z,17.03
2018-11-09T03:00:36.147Z,17.47
2018-11-09T03:03:05.424Z,15.20
2018-11-09T03:05:34.652Z,15.73
2018-11-09T03:08:05.672Z,20.67
2018-11-09T03:10:34.831Z,18.67
2018-11-09T03:13:03.991Z,18.17
2018-11-09T03:15:33.262Z,17.10
2018-11-09T03:18:02.674Z,15.80
2018-11-09T03:20:32.333Z,16.73
2018-11-09T03:23:02.445Z,17.57
2018-11-09T03:25:31.811Z,21.33
2018-11-09T03:28:01.191Z,17.57
2018-11-09T03:30:30.554Z,17.43
2018-11-09T03:32:59.764Z,20.60
2018-11-09T03:35:39.557Z,21.27
2018-11-09T03:38:08.733Z,16.90
2018-11-09T03:40:37.936Z,17.63
2018-11-09T03:43:09.100Z,24.10
2018-11-09T03:45:40.230Z,17.07
2018-11-09T03:48:09.374Z,16.70
2018-11-09T03:50:38.655Z,18.20
2018-11-09T03:53:08.074Z,17.90
2018-11-09T03:55:37.328Z,15.43
2018-11-09T03:58:06.858Z,15.13
2018-11-09T04:00:37.598Z,19.17
2018-11-09T04:03:06.800Z,15.80
2018-11-09T04:05:36.013Z,16.20
2018-11-09T04:08:05.343Z,14.93
2018-11-09T04:10:34.511Z,17.30
2018-11-09T04:13:03.669Z,15.33
2018-11-09T04:15:34.432Z,16.73
2018-11-09T04:18:04.911Z,15.43
2018-11-09T04:20:34.366Z,15.07
2018-11-09T04:23:06.017Z,17.33
2018-11-09T04:25:35.143Z,15.07
2018-11-09T04:28:04.329Z,20.83
2018-11-09T04:30:33.676Z,15.57
2018-11-09T04:33:05.763Z,16.97
2018-11-09T04:35:37.148Z,18.40
2018-11-09T04:38:07.217Z,17.40
2018-11-09T04:40:36.515Z,16.77
2018-11-09T04:43:06.025Z,20.63
2018-11-09T04:45:40.374Z,16.17
2018-11-09T04:48:14.185Z,16.43
2018-11-09T04:50:45.032Z,17.47
2018-11-09T04:53:15.703Z,16.57
2018-11-09T04:55:45.476Z,21.57
2018-11-09T04:58:14.598Z,16.73
2018-11-09T05:00:43.844Z,19.33
2018-11-09T05:03:16.894Z,17.30
2018-11-09T05:05:47.576Z,17.47
2018-11-09T05:08:19.776Z,17.13
2018-11-09T05:11:06.243Z,16.90
2018-11-09T05:13:35.330Z,16.13
2018-11-09T05:16:04.723Z,20.03
2018-11-09T05:18:35.934Z,22.63
2018-11-09T05:21:05.416Z,20.73
2018-11-09T05:23:35.081Z,21.70
2018-11-09T05:26:19.155Z,19.80
2018-11-09T05:29:01.539Z,21.83
2018-11-09T05:31:46.529Z,18.33
2018-11-09T05:34:26.172Z,20.20
2018-11-09T05:36:55.360Z,22.30
2018-11-09T05:39:24.516Z,21.60
2018-11-09T05:41:53.596Z,20.83
2018-11-09T05:44:22.688Z,21.47
2018-11-09T05:46:51.828Z,24.47
2018-11-09T05:49:21.757Z,22.30
2018-11-09T05:51:50.922Z,19.43
2018-11-09T05:54:20.320Z,27.70
2018-11-09T05:56:51.943Z,20.90
2018-11-09T05:59:21.098Z,21.50
2018-11-09T06:01:50.348Z,27.40
2018-11-09T06:04:19.607Z,23.93
2018-11-09T06:06:49.059Z,22.80
2018-11-09T06:09:18.729Z,25.53
2018-11-09T06:11:48.078Z,24.50
2018-11-09T06:14:17.335Z,26.63
2018-11-09T06:16:46.778Z,24.50
2018-11-09T06:19:16.223Z,26.07
2018-11-09T06:21:46.405Z,25.37
2018-11-09T06:24:16.331Z,25.00
2018-11-09T06:26:45.543Z,24.80
2018-11-09T06:29:16.880Z,30.37
2018-11-09T06:31:48.610Z,27.73
2018-11-09T06:34:21.196Z,24.90
2018-11-09T06:37:04.011Z,26.70
2018-11-09T06:39:37.770Z,24.13
2018-11-09T06:42:07.108Z,28.50
2018-11-09T06:44:38.574Z,24.40
2018-11-09T06:47:11.232Z,31.07
2018-11-09T06:49:40.595Z,28.90
2018-11-09T06:52:16.634Z,25.97
2018-11-09T06:55:04.501Z,27.13
2018-11-09T07:00:53.183Z,29.07
2018-11-09T07:03:23.610Z,25.43
2018-11-09T07:05:53.304Z,27.37
2018-11-09T07:08:22.898Z,26.23
2018-11-09T07:10:53.061Z,31.40
2018-11-09T07:13:23.208Z,31.23
2018-11-09T07:15:52.860Z,28.83
2018-11-09T07:18:34.088Z,28.17
2018-11-09T07:21:03.330Z,28.70
2018-11-09T07:23:32.851Z,29.03
2018-11-09T07:26:02.548Z,25.80
2018-11-09T07:28:32.371Z,27.17
2018-11-09T07:33:28.756Z,31.30
2018-11-09T07:36:01.201Z,28.53
2018-11-09T07:38:32.674Z,28.20
2018-11-09T07:41:01.951Z,30.60
2018-11-09T07:43:36.393Z,30.43
2018-11-09T07:46:07.288Z,30.40
2018-11-09T07:48:36.927Z,32.17
2018-11-09T07:51:08.184Z,30.70
2018-11-09T07:53:37.443Z,30.70
2018-11-09T07:56:07.224Z,33.20
2018-11-09T07:58:37.210Z,29.97
2018-11-09T08:01:06.757Z,35.33
2018-11-09T08:03:36.483Z,31.30
2018-11-09T08:06:05.726Z,32.77
2018-11-09T08:08:34.912Z,33.33
2018-11-09T08:11:07.861Z,28.57
2018-11-09T08:13:42.021Z,32.40
2018-11-09T08:16:12.484Z,31.27
2018-11-09T08:18:41.792Z,33.80
2018-11-09T08:21:10.878Z,35.27
2018-11-09T08:23:42.026Z,33.23
2018-11-09T08:26:11.685Z,35.23
2018-11-09T08:28:41.300Z,34.80
2018-11-09T08:31:16.132Z,36.00
2018-11-09T08:33:46.429Z,32.03
2018-11-09T08:36:22.531Z,32.80
2018-11-09T08:38:53.323Z,31.70
2018-11-09T08:41:26.615Z,30.77
2018-11-09T08:43:58.019Z,32.27
2018-11-09T08:46:28.437Z,38.90
2018-11-09T08:48:57.627Z,33.77
2018-11-09T08:51:27.749Z,31.20
2018-11-09T08:53:57.165Z,36.57
2018-11-09T08:56:44.036Z,32.57
2018-11-09T08:59:20.739Z,29.93
2018-11-09T09:01:50.337Z,35.10
2018-11-09T09:04:22.424Z,35.83
2018-11-09T09:06:52.138Z,33.13
2018-11-09T09:09:24.866Z,33.73
2018-11-09T09:11:56.634Z,30.27
2018-11-09T09:14:32.930Z,30.67
2018-11-09T09:17:02.344Z,29.60
2018-11-09T09:19:35.560Z,32.07
2018-11-09T09:22:04.985Z,34.20
2018-11-09T09:24:34.487Z,29.50
2018-11-09T09:27:06.892Z,29.50
2018-11-09T09:29:41.766Z,30.70
2018-11-09T09:32:11.026Z,32.27
2018-11-09T09:34:40.602Z,30.43
2018-11-09T09:37:10.061Z,28.90
2018-11-09T09:39:39.782Z,31.00
2018-11-09T09:42:10.550Z,29.60
2018-11-09T09:44:40.286Z,29.70
2018-11-09T09:47:09.638Z,32.73
2018-11-09T09:52:18.095Z,28.70
2018-11-09T09:54:47.717Z,29.57
2018-11-09T09:57:17.622Z,32.23
2018-11-09T09:59:47.978Z,31.10
2018-11-09T10:02:17.536Z,28.27
2018-11-09T10:04:48.027Z,28.27
2018-11-09T10:07:33.141Z,30.10
2018-11-09T10:10:16.363Z,28.67
2018-11-09T10:26:39.764Z,20.47
2018-11-09T10:29:09.227Z,23.47
2018-11-09T10:31:38.488Z,24.40
2018-11-09T10:34:09.424Z,21.90
2018-11-09T10:36:40.047Z,22.30
2018-11-09T10:39:10.299Z,26.73
2018-11-09T10:41:40.041Z,21.33
2018-11-09T10:44:16.462Z,20.43
2018-11-09T10:46:48.911Z,20.63
2018-11-09T10:49:23.889Z,19.47
2018-11-09T10:51:54.761Z,20.57
2018-11-09T10:54:24.167Z,24.53
2018-11-09T10:56:59.874Z,19.30
2018-11-09T10:59:29.034Z,19.07
2018-11-09T11:03:04.985Z,19.00
2018-11-09T11:05:34.432Z,19.40
2018-11-09T11:08:04.561Z,19.43
2018-11-09T11:10:34.234Z,25.40
2018-11-09T11:13:03.572Z,24.10
2018-11-09T11:15:34.869Z,18.83
2018-11-09T11:18:04.394Z,23.23
2018-11-09T11:20:34.422Z,19.60
2018-11-09T11:23:03.967Z,22.10
2018-11-09T11:25:33.235Z,19.83
2018-11-09T11:28:03.159Z,19.70
2018-11-09T11:30:32.648Z,20.67
2018-11-09T11:33:02.207Z,21.70
2018-11-09T11:35:32.440Z,21.93
2018-11-09T11:38:02.892Z,20.97
2018-11-09T11:40:32.258Z,20.40
2018-11-09T11:43:03.023Z,22.20
2018-11-09T11:45:32.286Z,19.83
2018-11-09T11:48:02.333Z,20.70
2018-11-09T11:50:32.098Z,21.13
2018-11-09T11:53:02.473Z,20.97
2018-11-09T11:55:37.890Z,20.50
2018-11-09T11:58:11.050Z,22.37
2018-11-09T12:00:40.812Z,21.83
2018-11-09T12:03:11.137Z,21.73
2018-11-09T12:06:02.044Z,23.63
2018-11-09T12:08:31.335Z,22.27
2018-11-09T12:11:01.875Z,23.00
2018-11-09T12:13:31.350Z,22.10
2018-11-09T12:16:00.532Z,20.00
2018-11-09T12:18:30.547Z,21.13
2018-11-09T12:21:01.241Z,21.77
2018-11-09T12:23:32.967Z,25.37
2018-11-09T12:26:05.594Z,24.67
2018-11-09T12:28:34.995Z,24.63
2018-11-09T12:31:04.866Z,24.80
2018-11-09T12:33:34.943Z,21.10
2018-11-09T12:36:05.461Z,21.07
2018-11-09T12:38:36.207Z,24.57
2018-11-09T12:41:08.798Z,23.37
2018-11-09T12:43:39.205Z,23.57
2018-11-09T12:46:08.521Z,22.20
2018-11-09T12:48:37.959Z,28.57
2018-11-09T12:51:07.292Z,22.53
2018-11-09T12:53:41.340Z,22.57
2018-11-09T12:56:14.676Z,23.53
2018-11-09T12:58:48.540Z,22.20
2018-11-09T13:01:18.364Z,22.00
2018-11-09T13:03:47.461Z,24.27
2018-11-09T13:06:19.165Z,26.63
2018-11-09T13:08:55.771Z,23.20
2018-11-09T13:11:26.361Z,21.13
2018-11-09T13:13:58.009Z,24.70
2018-11-09T13:16:35.295Z,25.43
2018-11-09T13:19:05.245Z,26.00
2018-11-09T13:21:34.780Z,23.87
2018-11-09T13:24:03.886Z,26.17
2018-11-09T13:26:33.253Z,25.63
2018-11-09T13:29:03.537Z,26.03
2018-11-09T13:31:36.938Z,24.83
2018-11-09T13:34:11.588Z,24.97
2018-11-09T13:36:41.372Z,26.23
2018-11-09T13:39:10.767Z,27.17
2018-11-09T13:41:40.106Z,25.43
2018-11-09T13:44:09.546Z,26.47
2018-11-09T13:46:38.931Z,27.20
2018-11-09T13:49:11.594Z,26.87
2018-11-09T13:51:41.045Z,26.30
2018-11-09T13:54:15.199Z,28.10
2018-11-09T13:56:44.665Z,27.23
2018-11-09T13:59:14.788Z,27.73
2018-11-09T14:01:43.995Z,26.37
2018-11-09T14:04:15.005Z,28.10
2018-11-09T14:06:44.378Z,27.37
2018-11-09T14:09:13.572Z,29.57
2018-11-09T14:11:48.168Z,28.07
2018-11-09T14:14:17.579Z,28.17
2018-11-09T14:16:47.713Z,28.00
2018-11-09T14:19:18.414Z,31.17
2018-11-09T14:21:47.660Z,29.03
2018-11-09T14:24:17.096Z,29.33
2018-11-09T14:26:46.269Z,29.73
2018-11-09T14:29:15.975Z,30.50
2018-11-09T14:31:45.520Z,27.23
2018-11-09T14:34:19.378Z,29.70
2018-11-09T14:36:51.972Z,30.13
2018-11-09T14:39:21.436Z,31.83
2018-11-09T14:41:51.084Z,26.77
2018-11-09T14:44:20.393Z,29.53
2018-11-09T14:46:50.332Z,28.40
2018-11-09T14:49:22.411Z,26.50
2018-11-09T14:51:52.397Z,31.50
2018-11-09T14:54:27.437Z,29.40
2018-11-09T14:57:01.091Z,29.80
2018-11-09T14:59:32.019Z,26.07
2018-11-09T15:02:02.880Z,26.37
2018-11-09T15:07:13.558Z,29.27
2018-11-09T15:09:44.349Z,28.40
2018-11-09T15:12:15.273Z,28.80
2018-11-09T15:14:45.495Z,27.13
2018-11-09T15:17:37.293Z,27.57
2018-11-09T15:20:13.727Z,27.00
2018-11-09T15:22:45.489Z,27.00
2018-11-09T15:25:17.459Z,25.97
2018-11-09T15:27:48.119Z,26.67
2018-11-09T15:30:21.811Z,29.17
2018-11-09T15:32:56.876Z,27.00
2018-11-09T15:38:33.817Z,28.80
2018-11-09T15:41:02.991Z,28.73
2018-11-09T15:43:32.318Z,28.60
2018-11-09T15:46:06.142Z,29.43
2018-11-09T16:01:42.072Z,31.47
2018-11-09T16:04:12.160Z,29.10
2018-11-09T16:06:41.431Z,29.03
2018-11-09T16:09:11.477Z,30.97
2018-11-09T16:11:40.916Z,29.60
2018-11-09T16:14:34.916Z,30.00
2018-11-09T16:17:05.918Z,30.57
2018-11-09T16:19:35.292Z,30.60
2018-11-09T16:22:36.208Z,30.30
2018-11-09T16:25:06.384Z,30.70
2018-11-09T16:27:35.911Z,31.77
2018-11-09T16:30:07.063Z,30.70
2018-11-09T16:32:38.918Z,31.77
2018-11-09T16:35:08.414Z,30.43
2018-11-09T16:38:07.055Z,31.53
2018-11-09T16:40:40.114Z,33.77
2018-11-09T16:43:14.914Z,32.20
2018-11-09T16:45:44.688Z,30.37
2018-11-09T16:48:48.414Z,31.17
2018-11-09T16:51:32.607Z,30.23
2018-11-09T16:54:01.926Z,30.73
2018-11-09T16:56:33.738Z,31.80
2018-11-09T16:59:04.780Z,29.70
2018-11-09T17:01:34.677Z,32.87
2018-11-09T17:07:01.863Z,30.87
2018-11-09T17:09:33.568Z,33.90
2018-11-09T17:12:05.919Z,30.03
2018-11-09T17:14:36.444Z,34.90
2018-11-09T17:17:05.710Z,33.87
2018-11-09T17:19:36.563Z,30.83
2018-11-09T17:22:06.914Z,32.27
2018-11-09T17:24:36.833Z,33.53
2018-11-09T17:30:11.359Z,34.37
2018-11-09T17:32:41.267Z,34.20
2018-11-09T17:38:16.276Z,34.50
2018-11-09T17:40:49.051Z,39.67
2018-11-09T17:43:35.797Z,38.57
2018-11-09T17:46:38.308Z,36.37
2018-11-09T17:49:12.083Z,37.63
2018-11-09T17:54:42.110Z,40.83
2018-11-09T17:57:32.178Z,40.53
2018-11-09T18:00:03.492Z,39.30
2018-11-09T18:02:34.128Z,40.70
2018-11-09T18:05:06.531Z,38.20
2018-11-09T18:07:36.185Z,39.53
2018-11-09T18:10:07.496Z,43.50
2018-11-09T18:12:36.863Z,44.97
2018-11-09T18:15:07.872Z,42.40
2018-11-09T18:17:37.041Z,42.73
2018-11-09T18:20:08.218Z,42.67
2018-11-09T18:22:37.405Z,45.17
2018-11-09T18:25:06.681Z,46.80
2018-11-09T18:27:38.878Z,48.73
2018-11-09T18:30:09.169Z,46.40
2018-11-09T18:32:38.374Z,47.60
2018-11-09T18:35:08.013Z,47.33
2018-11-09T18:37:37.196Z,50.13
2018-11-09T18:40:09.743Z,47.80
2018-11-09T18:42:39.119Z,42.77
2018-11-09T18:45:09.115Z,46.87
2018-11-09T18:47:38.439Z,48.90
2018-11-09T18:50:09.280Z,57.83
2018-11-09T18:52:39.070Z,47.50
2018-11-09T18:55:11.158Z,49.07
2018-11-09T18:57:40.983Z,50.37
2018-11-09T19:00:12.189Z,46.70
2018-11-09T19:02:41.252Z,52.57
2018-11-09T19:05:11.823Z,53.13
2018-11-09T19:07:41.389Z,50.50
2018-11-09T19:10:25.358Z,53.90
2018-11-09T19:12:56.604Z,53.73
2018-11-09T19:15:25.838Z,48.97
2018-11-09T19:17:55.026Z,51.03
2018-11-09T19:20:24.177Z,50.47
2018-11-09T19:23:06.538Z,56.13
2018-11-09T19:25:35.820Z,51.90
2018-11-09T19:28:05.786Z,52.30
2018-11-09T19:30:35.069Z,52.90
2018-11-09T19:33:04.623Z,54.80
2018-11-09T19:35:33.680Z,58.40
2018-11-09T19:38:02.922Z,57.50
2018-11-09T19:40:32.090Z,59.33
2018-11-09T19:43:01.295Z,53.30
2018-11-09T19:45:32.006Z,57.83
2018-11-09T19:48:01.665Z,51.37
2018-11-09T19:50:31.234Z,54.43
2018-11-09T19:53:00.544Z,52.00
2018-11-09T19:55:29.946Z,59.80
2018-11-09T19:57:59.345Z,52.77
2018-11-09T20:00:28.513Z,55.43
2018-11-09T20:02:57.903Z,58.87
2018-11-09T20:05:27.308Z,53.57
2018-11-09T20:07:56.875Z,54.27
2018-11-09T20:10:26.116Z,54.43
2018-11-09T20:12:58.046Z,53.90
2018-11-09T20:15:27.181Z,50.80
2018-11-09T20:18:01.147Z,53.33
2018-11-09T20:20:30.639Z,53.70
2018-11-09T20:25:44.823Z,56.27
2018-11-09T20:28:13.945Z,55.83
2018-11-09T20:30:43.857Z,55.80
2018-11-09T20:33:13.105Z,54.97
2018-11-09T20:35:42.508Z,51.73
2018-11-09T20:38:11.662Z,56.20
2018-11-09T20:40:40.989Z,54.77
2018-11-09T20:43:10.182Z,56.90
2018-11-09T20:45:40.362Z,61.00
2018-11-09T20:48:10.808Z,61.50
2018-11-09T20:50:39.964Z,57.07
2018-11-09T20:53:09.111Z,57.20
2018-11-09T20:55:38.239Z,56.83
2018-11-09T21:01:04.170Z,55.50
2018-11-09T21:03:33.458Z,56.70
2018-11-09T21:06:03.715Z,53.50
2018-11-09T21:08:33.501Z,59.60
2018-11-09T21:11:05.913Z,57.30
2018-11-09T21:13:35.575Z,62.33
2018-11-09T21:19:07.632Z,60.77
2018-11-09T21:22:05.545Z,59.50
2018-11-09T21:24:35.244Z,57.57
2018-11-09T21:27:04.371Z,56.47
2018-11-09T21:29:33.735Z,61.17
2018-11-09T21:32:03.036Z,58.47
2018-11-09T21:34:32.782Z,65.30
2018-11-09T21:37:02.198Z,58.77
2018-11-09T21:42:38.530Z,60.37
2018-11-09T21:45:07.966Z,56.67
2018-11-09T21:47:37.918Z,63.10
2018-11-09T21:50:08.292Z,56.53
2018-11-09T21:52:37.598Z,60.27
2018-11-09T21:55:07.795Z,56.70
2018-11-09T21:57:37.229Z,57.40
2018-11-09T22:00:17.141Z,58.70
2018-11-09T22:02:47.148Z,57.27
2018-11-09T22:05:16.641Z,61.10
2018-11-09T22:07:46.981Z,58.13
2018-11-09T22:10:17.812Z,56.57
2018-11-09T22:13:22.382Z,56.30
2018-11-09T22:15:51.448Z,60.63
2018-11-09T22:18:20.985Z,61.07
2018-11-09T22:20:50.218Z,62.10
2018-11-09T22:23:19.495Z,57.27
2018-11-09T22:25:49.675Z,57.97
2018-11-09T22:28:18.870Z,60.53
2018-11-09T22:30:48.048Z,62.40
2018-11-09T22:33:18.281Z,61.30
2018-11-09T22:35:47.544Z,58.97
2018-11-09T22:38:16.730Z,61.07
2018-11-09T22:40:45.862Z,59.17
2018-11-09T22:43:15.039Z,60.20
2018-11-09T22:45:44.161Z,59.40
2018-11-09T22:48:13.264Z,58.20
2018-11-09T22:50:42.384Z,64.00
2018-11-09T22:53:11.535Z,62.43
2018-11-09T22:55:40.642Z,62.93
2018-11-09T22:58:09.861Z,69.23
2018-11-09T23:00:44.284Z,63.50
2018-11-09T23:03:14.122Z,62.27
2018-11-09T23:05:43.308Z,62.93
2018-11-09T23:08:12.352Z,64.13
2018-11-09T23:10:43.362Z,64.30
2018-11-09T23:13:12.466Z,69.33
2018-11-09T23:15:41.690Z,62.27
2018-11-09T23:18:10.778Z,66.33
2018-11-09T23:20:39.833Z,64.00
2018-11-09T23:23:10.346Z,67.20
2018-11-09T23:25:39.465Z,63.47
2018-11-09T23:28:08.651Z,66.00
2018-11-09T23:30:37.810Z,63.83
2018-11-09T23:33:07.228Z,62.87
2018-11-09T23:35:36.282Z,59.67
2018-11-09T23:38:05.547Z,71.53
2018-11-09T23:40:34.817Z,58.03
2018-11-09T23:43:08.761Z,58.47
2018-11-09T23:45:38.376Z,58.07
2018-11-09T23:48:08.421Z,57.70
2018-11-09T23:50:37.826Z,56.63
2018-11-09T23:53:06.995Z,51.50
2018-11-09T23:55:36.593Z,57.73
2018-11-09T23:58:05.927Z,61.27
